Time;durP1;ratioP1;P1;durP2;ratioP2;P2;SDS_P1;SDS_P2;PMS_P1;PMS_P2;Temp;Humidity;BMP_temperature;BMP_pressure;BME280_temperature;BME280_humidity;BME280_pressure;Samples;Min_cycle;Max_cycle;Signal;HPM_P1;HPM_P2
2021/07/13 00:00:12;;;;;;;2.30;2.00;;;22.10;69.20;;;;;;5086673;28;20497;-65
2021/07/13 00:02:39;;;;;;;2.10;1.98;;;22.10;69.00;;;;;;5085757;27;20507;-65
2021/07/13 00:05:10;;;;;;;2.22;2.03;;;22.10;69.00;;;;;;5083377;27;20036;-65
2021/07/13 00:07:36;;;;;;;2.25;2.05;;;22.00;69.30;;;;;;5102220;27;20131;-65
2021/07/13 00:10:05;;;;;;;2.00;1.90;;;21.90;69.50;;;;;;5088290;27;20148;-66
2021/07/13 00:12:30;;;;;;;2.08;1.83;;;21.80;69.60;;;;;;5085363;27;20040;-65
2021/07/13 00:14:56;;;;;;;1.92;1.80;;;21.80;69.80;;;;;;5078091;28;20526;-66
2021/07/13 00:17:22;;;;;;;2.17;1.98;;;21.70;70.00;;;;;;5085777;27;20407;-65
2021/07/13 00:19:47;;;;;;;2.10;1.90;;;21.70;70.20;;;;;;5086469;28;20503;-65
2021/07/13 00:22:13;;;;;;;2.50;1.90;;;21.60;70.30;;;;;;5085579;27;20044;-66
2021/07/13 00:24:38;;;;;;;2.17;2.05;;;21.60;70.40;;;;;;5083963;28;20156;-66
2021/07/13 00:27:04;;;;;;;2.63;2.10;;;21.50;70.50;;;;;;5079952;28;20531;-66
2021/07/13 00:29:30;;;;;;;3.53;2.00;;;21.40;70.40;;;;;;5082263;27;20040;-65
2021/07/13 00:31:55;;;;;;;2.20;1.90;;;21.40;70.60;;;;;;5085956;28;20037;-65
2021/07/13 00:34:21;;;;;;;2.63;2.17;;;21.40;70.60;;;;;;5081157;27;20047;-66
2021/07/13 00:36:46;;;;;;;2.22;2.00;;;21.40;70.40;;;;;;5086211;27;20419;-65
2021/07/13 00:39:12;;;;;;;1.65;1.50;;;21.30;70.40;;;;;;5079727;28;20488;-66
2021/07/13 00:41:38;;;;;;;2.17;1.88;;;21.30;70.50;;;;;;5085055;27;21936;-65
2021/07/13 00:44:04;;;;;;;1.70;1.60;;;21.30;70.60;;;;;;5083912;28;20097;-65
2021/07/13 00:46:29;;;;;;;1.88;1.77;;;21.40;70.60;;;;;;5080001;27;20041;-66
2021/07/13 00:48:56;;;;;;;2.20;2.10;;;21.40;70.70;;;;;;5082518;27;20164;-66
2021/07/13 00:51:21;;;;;;;2.28;1.80;;;21.40;70.70;;;;;;5082768;27;20024;-65
2021/07/13 00:53:48;;;;;;;4.22;2.10;;;21.50;70.80;;;;;;5085609;27;20035;-65
2021/07/13 00:56:17;;;;;;;2.50;1.90;;;21.50;70.60;;;;;;5084080;27;20119;-65
2021/07/13 00:58:43;;;;;;;2.10;1.70;;;21.50;70.70;;;;;;5084757;27;20036;-65
2021/07/13 01:01:09;;;;;;;1.70;1.60;;;21.50;70.80;;;;;;5086483;28;20117;-65
2021/07/13 01:03:36;;;;;;;1.80;1.70;;;21.50;70.80;;;;;;5085169;28;20066;-65
2021/07/13 01:06:03;;;;;;;3.92;1.90;;;21.50;71.10;;;;;;5085408;27;20124;-65
2021/07/13 01:08:38;;;;;;;1.80;1.70;;;21.50;71.10;;;;;;5084388;28;20051;-65
2021/07/13 01:11:03;;;;;;;;;;;21.40;71.70;;;;;;5081991;27;20033;-65
2021/07/13 01:13:49;;;;;;;1.70;1.60;;;21.50;70.90;;;;;;5087435;28;19965;-65
2021/07/13 01:16:14;;;;;;;;;;;21.50;70.80;;;;;;5094253;27;21638;-65
2021/07/13 01:19:20;;;;;;;1.83;1.50;;;21.50;70.40;;;;;;5080726;28;19969;-65
2021/07/13 01:21:51;;;;;;;2.17;1.70;;;21.50;70.90;;;;;;5083954;27;20050;-65
2021/07/13 01:24:36;;;;;;;2.72;1.58;;;21.50;70.40;;;;;;5082881;28;20036;-66
2021/07/13 01:27:15;;;;;;;3.08;2.00;;;21.50;71.00;;;;;;5079389;28;20499;-66
2021/07/13 01:29:43;;;;;;;2.47;1.75;;;21.40;70.80;;;;;;5081613;27;20028;-65
2021/07/13 01:32:14;;;;;;;2.17;1.98;;;21.40;70.50;;;;;;5101497;27;20067;-65
2021/07/13 01:34:44;;;;;;;3.88;1.90;;;21.40;70.80;;;;;;5080037;27;20036;-65
2021/07/13 01:37:13;;;;;;;2.28;2.08;;;21.40;71.60;;;;;;5081813;27;20071;-65
2021/07/13 01:39:40;;;;;;;3.40;1.88;;;21.40;70.70;;;;;;5080151;28;20103;-65
2021/07/13 01:42:09;;;;;;;3.35;2.00;;;21.40;71.30;;;;;;5085272;27;20032;-66
2021/07/13 01:44:36;;;;;;;2.65;2.08;;;21.30;71.30;;;;;;5084605;27;20047;-65
2021/07/13 01:47:02;;;;;;;2.75;2.55;;;21.30;71.20;;;;;;5085385;28;20062;-65
2021/07/13 01:49:29;;;;;;;2.70;2.15;;;21.30;71.40;;;;;;5077233;27;20047;-65
2021/07/13 01:51:56;;;;;;;3.42;2.65;;;21.30;71.80;;;;;;5079686;28;20082;-65
2021/07/13 01:54:25;;;;;;;2.83;2.47;;;21.30;72.30;;;;;;5080053;27;20040;-65
2021/07/13 01:56:55;;;;;;;2.65;2.28;;;21.30;72.50;;;;;;5077270;27;20032;-65
2021/07/13 01:59:22;;;;;;;2.20;2.00;;;21.30;72.60;;;;;;5082371;27;20055;-65
2021/07/13 02:01:48;;;;;;;3.42;2.33;;;21.30;72.60;;;;;;5080506;27;20132;-65
2021/07/13 02:04:14;;;;;;;3.35;2.83;;;21.30;72.80;;;;;;5082075;28;20032;-65
2021/07/13 02:06:44;;;;;;;4.38;2.60;;;21.30;73.00;;;;;;5083278;27;20028;-65
2021/07/13 02:09:13;;;;;;;3.40;2.50;;;21.30;73.50;;;;;;5079687;27;20028;-65
2021/07/13 02:11:45;;;;;;;2.88;2.67;;;21.30;73.70;;;;;;5082064;28;20564;-65
2021/07/13 02:14:12;;;;;;;5.07;3.03;;;21.20;74.10;;;;;;5084797;27;20521;-65
2021/07/13 02:16:38;;;;;;;4.47;3.10;;;21.30;74.00;;;;;;5080245;27;20043;-65
2021/07/13 02:19:05;;;;;;;3.65;2.63;;;21.30;74.40;;;;;;5083303;28;20060;-65
2021/07/13 02:21:32;;;;;;;5.75;3.00;;;21.30;74.70;;;;;;5080218;27;20032;-64
2021/07/13 02:23:59;;;;;;;5.50;2.85;;;21.20;74.90;;;;;;5084081;28;20127;-64
2021/07/13 02:26:34;;;;;;;3.13;2.72;;;21.20;75.30;;;;;;5081552;27;20515;-64
2021/07/13 02:29:08;;;;;;;5.13;2.80;;;21.10;76.20;;;;;;5083714;27;20036;-64
2021/07/13 02:31:40;;;;;;;4.07;2.73;;;21.10;76.30;;;;;;5084150;28;20181;-64
2021/07/13 02:34:11;;;;;;;6.65;2.50;;;21.00;76.00;;;;;;5076372;28;20039;-64
2021/07/13 02:36:42;;;;;;;3.78;2.25;;;21.00;76.40;;;;;;5078979;27;20450;-63
2021/07/13 02:39:09;;;;;;;2.88;2.40;;;20.90;76.50;;;;;;5080937;28;20032;-64
2021/07/13 02:41:38;;;;;;;4.00;2.05;;;20.90;76.30;;;;;;5081644;27;20555;-64
2021/07/13 02:44:04;;;;;;;3.38;2.00;;;20.80;76.50;;;;;;5082038;28;20154;-64
2021/07/13 02:46:31;;;;;;;4.05;1.88;;;20.70;76.60;;;;;;5081537;27;20071;-64
2021/07/13 02:48:59;;;;;;;4.05;1.90;;;20.70;76.80;;;;;;5080137;28;20136;-64
2021/07/13 02:51:27;;;;;;;3.72;2.00;;;20.60;77.10;;;;;;5084807;28;20032;-64
2021/07/13 02:53:55;;;;;;;1.98;1.77;;;20.60;77.30;;;;;;5087265;27;20100;-63
2021/07/13 02:56:26;;;;;;;4.00;1.70;;;20.60;77.90;;;;;;5083756;28;20090;-64
2021/07/13 02:58:56;;;;;;;3.53;1.33;;;20.60;77.60;;;;;;5083200;28;20028;-64
2021/07/13 03:01:23;;;;;;;1.52;1.42;;;20.60;77.20;;;;;;5088637;27;20032;-63
2021/07/13 03:03:50;;;;;;;3.80;1.50;;;20.60;77.00;;;;;;5089747;28;20036;-64
2021/07/13 03:06:17;;;;;;;1.77;1.63;;;20.60;77.00;;;;;;5090517;27;20036;-63
2021/07/13 03:08:42;;;;;;;3.53;1.50;;;20.60;77.00;;;;;;5084983;27;20039;-64
2021/07/13 03:11:09;;;;;;;2.53;1.60;;;20.60;77.00;;;;;;5082796;28;20059;-64
2021/07/13 03:13:35;;;;;;;1.65;1.48;;;20.60;76.80;;;;;;5088589;27;20118;-63
2021/07/13 03:16:02;;;;;;;1.95;1.60;;;20.60;76.80;;;;;;5087892;28;20032;-63
2021/07/13 03:18:29;;;;;;;2.55;1.30;;;20.60;77.00;;;;;;5081132;28;20028;-64
2021/07/13 03:20:59;;;;;;;1.52;0.90;;;20.60;77.00;;;;;;5098191;27;20028;-63
2021/07/13 03:23:27;;;;;;;2.03;1.17;;;20.60;77.00;;;;;;5085768;28;20107;-63
2021/07/13 03:25:54;;;;;;;1.40;1.27;;;20.60;76.80;;;;;;5086623;27;20499;-63
2021/07/13 03:28:22;;;;;;;1.33;1.00;;;20.60;76.80;;;;;;5087466;27;20078;-63
2021/07/13 03:30:48;;;;;;;1.60;1.10;;;20.60;76.80;;;;;;5087766;28;20086;-64
2021/07/13 03:33:15;;;;;;;1.30;1.17;;;20.60;76.40;;;;;;5084402;28;20024;-63
2021/07/13 03:35:41;;;;;;;1.55;1.20;;;20.60;76.10;;;;;;5082883;28;20032;-64
2021/07/13 03:38:07;;;;;;;1.45;1.02;;;20.60;76.10;;;;;;5082451;27;20054;-64
2021/07/13 03:40:33;;;;;;;5.10;1.30;;;20.60;76.10;;;;;;5083263;27;20032;-64
2021/07/13 03:42:59;;;;;;;1.10;0.90;;;20.60;76.00;;;;;;5086924;27;20115;-63
2021/07/13 03:45:28;;;;;;;3.70;1.15;;;20.60;76.00;;;;;;5081505;27;20044;-63
2021/07/13 03:47:57;;;;;;;3.08;1.00;;;20.70;76.10;;;;;;5082881;27;20036;-64
2021/07/13 03:50:25;;;;;;;1.48;1.10;;;20.60;76.00;;;;;;5083395;27;20526;-63
2021/07/13 03:52:50;;;;;;;2.17;1.10;;;20.60;75.90;;;;;;5087087;27;20109;-63
2021/07/13 03:55:16;;;;;;;4.50;1.30;;;20.60;75.70;;;;;;5083055;28;20166;-63
2021/07/13 03:57:42;;;;;;;4.15;1.50;;;20.60;75.60;;;;;;5085548;27;20043;-63
2021/07/13 04:00:11;;;;;;;1.90;1.20;;;20.60;75.30;;;;;;5088936;28;20119;-63
2021/07/13 04:02:37;;;;;;;2.63;1.25;;;20.60;75.40;;;;;;5081860;27;20418;-63
2021/07/13 04:05:04;;;;;;;1.33;1.23;;;20.50;75.40;;;;;;5082418;27;20028;-63
2021/07/13 04:07:30;;;;;;;5.55;1.35;;;20.40;75.60;;;;;;5083590;28;20036;-64
2021/07/13 04:09:57;;;;;;;1.55;1.30;;;20.40;75.60;;;;;;5093845;27;20220;-64
2021/07/13 04:12:22;;;;;;;2.92;1.30;;;20.30;75.80;;;;;;5080665;27;20090;-64
2021/07/13 04:14:48;;;;;;;1.60;1.00;;;20.20;75.90;;;;;;5078103;28;20039;-63
2021/07/13 04:17:14;;;;;;;1.70;1.40;;;20.20;76.10;;;;;;5078432;27;20608;-64
2021/07/13 04:19:39;;;;;;;4.13;1.42;;;20.20;76.40;;;;;;5082039;28;20388;-64
2021/07/13 04:22:06;;;;;;;3.55;1.40;;;20.20;76.50;;;;;;5078659;27;20530;-62
2021/07/13 04:24:31;;;;;;;2.25;1.65;;;20.10;76.60;;;;;;5080534;27;20108;-64
2021/07/13 04:26:57;;;;;;;1.50;1.40;;;20.10;76.80;;;;;;5085269;28;20071;-64
2021/07/13 04:29:23;;;;;;;1.60;1.50;;;20.10;77.10;;;;;;5088159;27;20647;-64
2021/07/13 04:31:48;;;;;;;1.92;1.20;;;20.10;77.20;;;;;;5086706;27;20036;-64
2021/07/13 04:34:14;;;;;;;1.38;1.17;;;20.10;77.30;;;;;;5072863;27;20063;-64
2021/07/13 04:36:41;;;;;;;3.92;1.90;;;20.00;77.30;;;;;;5084881;27;20515;-64
2021/07/13 04:39:08;;;;;;;2.65;1.80;;;20.00;77.60;;;;;;5087150;28;20035;-63
2021/07/13 04:41:34;;;;;;;4.75;2.00;;;20.00;77.90;;;;;;5086098;27;20028;-64
2021/07/13 04:44:00;;;;;;;4.57;2.05;;;20.00;77.80;;;;;;5083205;28;20042;-63
2021/07/13 04:46:27;;;;;;;8.02;2.15;;;20.00;78.00;;;;;;5083775;27;20055;-62
2021/07/13 04:48:54;;;;;;;2.47;1.67;;;20.00;78.00;;;;;;5081987;27;20033;-64
2021/07/13 04:51:19;;;;;;;2.03;1.70;;;20.00;77.90;;;;;;5084920;28;20036;-64
2021/07/13 04:53:45;;;;;;;1.60;1.50;;;20.00;77.90;;;;;;5086821;27;20088;-64
2021/07/13 04:56:10;;;;;;;1.92;1.55;;;20.00;78.20;;;;;;5088826;28;20032;-64
2021/07/13 04:58:36;;;;;;;2.10;1.65;;;20.00;78.20;;;;;;5086447;27;20032;-64
2021/07/13 05:01:02;;;;;;;3.75;2.63;;;20.00;78.40;;;;;;5088217;27;20077;-64
2021/07/13 05:03:27;;;;;;;2.60;2.40;;;20.00;78.60;;;;;;5084417;27;20503;-64
2021/07/13 05:05:53;;;;;;;4.90;1.30;;;20.00;78.50;;;;;;5087956;27;20052;-64
2021/07/13 05:08:21;;;;;;;2.85;1.60;;;20.00;78.60;;;;;;5088464;28;20519;-64
2021/07/13 05:10:47;;;;;;;3.65;1.50;;;20.00;78.50;;;;;;5086978;28;20137;-64
2021/07/13 05:13:13;;;;;;;1.92;1.77;;;20.10;78.60;;;;;;5086424;27;20028;-64
2021/07/13 05:15:39;;;;;;;1.92;1.63;;;20.10;78.50;;;;;;5086793;28;20032;-64
2021/07/13 05:18:14;;;;;;;2.17;1.30;;;20.10;78.40;;;;;;5088082;27;20385;-64
2021/07/13 05:20:46;;;;;;;1.80;1.70;;;20.10;78.50;;;;;;5087593;27;20082;-64
2021/07/13 05:23:12;;;;;;;1.80;1.63;;;20.20;78.40;;;;;;5087564;28;20160;-64
2021/07/13 05:25:39;;;;;;;2.13;1.60;;;20.20;78.50;;;;;;5087499;27;20538;-64
2021/07/13 05:28:10;;;;;;;2.10;1.35;;;20.20;78.70;;;;;;5087041;28;20056;-64
2021/07/13 05:30:39;;;;;;;2.00;1.63;;;20.20;78.40;;;;;;5094358;27;20455;-64
2021/07/13 05:33:06;;;;;;;1.77;1.60;;;20.30;78.40;;;;;;5085989;27;20028;-64
2021/07/13 05:35:31;;;;;;;3.83;1.67;;;20.30;78.40;;;;;;5087880;28;20099;-64
2021/07/13 05:37:57;;;;;;;2.00;1.80;;;20.30;78.20;;;;;;5087759;27;20040;-64
2021/07/13 05:40:22;;;;;;;1.98;1.70;;;20.30;77.90;;;;;;5086985;27;20555;-64
2021/07/13 05:42:48;;;;;;;3.92;1.88;;;20.40;78.00;;;;;;5087173;28;20032;-64
2021/07/13 05:45:14;;;;;;;1.48;1.33;;;20.40;77.80;;;;;;5086775;27;20619;-64
2021/07/13 05:47:40;;;;;;;4.35;2.55;;;20.40;77.80;;;;;;5080774;28;20039;-64
2021/07/13 05:50:08;;;;;;;3.10;2.47;;;20.50;77.70;;;;;;5086495;27;20085;-64
2021/07/13 05:52:34;;;;;;;2.28;2.08;;;20.50;77.70;;;;;;5086668;27;20032;-64
2021/07/13 05:55:00;;;;;;;2.75;2.35;;;20.50;77.60;;;;;;5086522;28;20032;-64
2021/07/13 05:57:26;;;;;;;3.45;2.20;;;20.50;77.50;;;;;;5086600;27;20123;-64
2021/07/13 05:59:53;;;;;;;4.47;2.72;;;20.50;77.30;;;;;;5084213;28;20033;-65
2021/07/13 06:02:18;;;;;;;3.28;2.97;;;20.50;77.20;;;;;;5099059;27;20035;-64
2021/07/13 06:04:44;;;;;;;3.38;2.25;;;20.50;77.30;;;;;;5079639;27;20028;-64
2021/07/13 06:07:09;;;;;;;2.20;1.80;;;20.50;77.20;;;;;;5087456;27;20415;-64
2021/07/13 06:09:35;;;;;;;2.35;1.95;;;20.50;77.50;;;;;;5086654;27;20082;-65
2021/07/13 06:12:01;;;;;;;4.07;3.20;;;20.50;77.50;;;;;;5079692;28;20421;-64
2021/07/13 06:14:26;;;;;;;3.45;2.78;;;20.50;77.60;;;;;;5085076;27;20036;-65
2021/07/13 06:16:52;;;;;;;2.30;2.10;;;20.50;78.50;;;;;;5086459;27;20036;-64
2021/07/13 06:19:18;;;;;;;1.95;1.73;;;20.50;77.70;;;;;;5086328;28;20593;-65
2021/07/13 06:21:44;;;;;;;2.72;1.20;;;20.50;77.90;;;;;;5085869;27;20036;-64
2021/07/13 06:24:11;;;;;;;2.90;1.58;;;20.50;77.80;;;;;;5086581;28;20074;-64
2021/07/13 06:26:37;;;;;;;3.05;1.10;;;20.50;77.70;;;;;;5086271;27;20032;-64
2021/07/13 06:29:03;;;;;;;4.88;1.60;;;20.50;77.80;;;;;;5086662;27;20028;-64
2021/07/13 06:31:29;;;;;;;6.07;1.77;;;20.50;77.90;;;;;;5080204;28;20495;-63
2021/07/13 06:33:54;;;;;;;5.22;1.27;;;20.40;78.00;;;;;;5082014;27;20096;-63
2021/07/13 06:36:20;;;;;;;2.97;1.52;;;20.40;78.20;;;;;;5085609;28;20043;-63
2021/07/13 06:38:46;;;;;;;2.75;0.80;;;20.30;78.40;;;;;;5085117;27;20035;-63
2021/07/13 06:41:11;;;;;;;2.42;0.70;;;20.30;78.40;;;;;;5086525;27;20047;-63
2021/07/13 06:43:37;;;;;;;1.25;0.63;;;20.30;78.60;;;;;;5086119;28;20036;-64
2021/07/13 06:46:03;;;;;;;1.95;0.65;;;20.20;78.60;;;;;;5085640;27;20052;-64
2021/07/13 06:48:28;;;;;;;1.58;0.70;;;20.20;78.60;;;;;;5084364;27;20047;-64
2021/07/13 06:50:54;;;;;;;2.00;0.50;;;20.20;78.90;;;;;;5086361;28;20033;-63
2021/07/13 06:53:20;;;;;;;1.05;0.60;;;20.10;79.20;;;;;;5085454;27;20024;-63
2021/07/13 06:55:46;;;;;;;1.05;0.65;;;20.10;79.40;;;;;;5086453;28;20507;-63
2021/07/13 06:58:12;;;;;;;1.23;0.50;;;20.10;79.50;;;;;;5086778;27;20513;-63
2021/07/13 07:00:38;;;;;;;1.20;0.70;;;20.10;79.40;;;;;;5085824;27;20040;-63
2021/07/13 07:03:04;;;;;;;0.40;0.30;;;20.10;79.80;;;;;;5080949;28;20040;-61
2021/07/13 07:05:29;;;;;;;1.25;0.57;;;20.10;80.10;;;;;;5086000;27;20032;-63
2021/07/13 07:07:55;;;;;;;0.68;0.52;;;20.10;80.10;;;;;;5085903;28;20032;-63
2021/07/13 07:10:21;;;;;;;0.75;0.40;;;20.00;80.40;;;;;;5083408;27;20095;-63
2021/07/13 07:12:48;;;;;;;1.50;0.50;;;20.00;80.80;;;;;;5084890;27;20043;-63
2021/07/13 07:15:14;;;;;;;0.95;0.60;;;20.10;81.10;;;;;;5084976;28;20032;-63
2021/07/13 07:17:52;;;;;;;0.70;0.70;;;20.10;81.20;;;;;;5085885;27;20164;-63
2021/07/13 07:20:22;;;;;;;1.58;0.80;;;20.10;81.50;;;;;;5086129;28;20062;-63
2021/07/13 07:22:48;;;;;;;0.73;0.45;;;20.20;81.30;;;;;;5084407;28;20491;-63
2021/07/13 07:25:15;;;;;;;0.55;0.52;;;20.20;80.80;;;;;;5099727;27;20052;-64
2021/07/13 07:27:41;;;;;;;1.20;0.70;;;20.30;80.60;;;;;;5084536;28;20035;-64
2021/07/13 07:30:09;;;;;;;1.35;0.65;;;20.30;80.70;;;;;;5082396;27;20043;-63
2021/07/13 07:32:37;;;;;;;2.17;0.60;;;20.30;80.80;;;;;;5083136;27;20028;-64
2021/07/13 07:35:04;;;;;;;0.73;0.50;;;20.30;80.80;;;;;;5086319;28;20423;-64
2021/07/13 07:37:29;;;;;;;0.60;0.30;;;20.30;80.50;;;;;;5087437;27;20063;-64
2021/07/13 07:39:55;;;;;;;0.45;0.25;;;20.30;80.60;;;;;;5088674;28;20925;-63
2021/07/13 07:42:21;;;;;;;0.45;0.20;;;20.30;80.70;;;;;;5088854;27;20236;-64
2021/07/13 07:44:47;;;;;;;0.20;0.20;;;20.30;80.50;;;;;;5089540;27;20085;-64
2021/07/13 07:47:12;;;;;;;3.75;0.30;;;20.30;80.30;;;;;;5090076;28;20036;-63
2021/07/13 07:49:38;;;;;;;0.10;0.10;;;20.30;80.20;;;;;;5090419;27;20122;-64
2021/07/13 07:52:04;;;;;;;0.50;0.20;;;20.30;80.00;;;;;;5091072;28;20589;-64
2021/07/13 07:54:30;;;;;;;0.22;0.10;;;20.30;79.70;;;;;;5089391;27;20460;-64
2021/07/13 07:56:55;;;;;;;0.25;0.20;;;20.20;80.00;;;;;;5081876;28;20468;-64
2021/07/13 07:59:21;;;;;;;0.57;0.22;;;20.20;80.10;;;;;;5089732;28;20776;-64
2021/07/13 08:01:50;;;;;;;0.20;0.10;;;20.20;80.00;;;;;;5087839;27;20056;-64
2021/07/13 08:04:16;;;;;;;0.30;0.10;;;20.20;80.10;;;;;;5088944;28;20028;-64
2021/07/13 08:06:42;;;;;;;2.30;0.13;;;20.20;80.10;;;;;;5081852;28;20099;-64
2021/07/13 08:09:07;;;;;;;0.20;0.10;;;20.30;80.10;;;;;;5088137;27;20046;-64
2021/07/13 08:11:35;;;;;;;2.90;0.10;;;20.30;80.30;;;;;;5086975;28;20069;-63
2021/07/13 08:14:00;;;;;;;0.20;0.10;;;20.30;80.30;;;;;;5087098;27;20032;-64
2021/07/13 08:16:30;;;;;;;0.10;0.10;;;20.30;80.10;;;;;;5088153;27;20046;-64
2021/07/13 08:18:56;;;;;;;0.55;0.10;;;20.30;80.00;;;;;;5086830;28;20123;-64
2021/07/13 08:21:21;;;;;;;0.55;0.10;;;20.30;79.80;;;;;;5088550;27;20108;-63
2021/07/13 08:23:47;;;;;;;0.50;0.10;;;20.30;79.80;;;;;;5088915;28;20024;-64
2021/07/13 08:26:13;;;;;;;0.25;0.00;;;20.30;78.80;;;;;;5087886;27;20112;-64
2021/07/13 08:28:39;;;;;;;0.30;0.00;;;20.20;78.20;;;;;;5085720;27;20036;-64
2021/07/13 08:31:05;;;;;;;0.17;0.00;;;20.20;77.90;;;;;;5086052;28;20025;-64
2021/07/13 08:33:31;;;;;;;0.20;0.10;;;20.00;77.90;;;;;;5097922;27;20040;-63
2021/07/13 08:35:56;;;;;;;0.57;0.20;;;19.90;78.00;;;;;;5087208;28;20036;-64
2021/07/13 08:38:22;;;;;;;0.30;0.10;;;19.80;77.90;;;;;;5084484;27;20576;-64
2021/07/13 08:40:48;;;;;;;0.47;0.10;;;19.70;78.00;;;;;;5088645;27;20039;-64
2021/07/13 08:43:14;;;;;;;0.30;0.10;;;19.60;78.00;;;;;;5088009;28;20039;-64
2021/07/13 08:45:41;;;;;;;0.43;0.20;;;19.50;78.20;;;;;;5088770;27;20032;-64
2021/07/13 08:48:12;;;;;;;0.77;0.10;;;19.40;78.20;;;;;;5085587;28;20040;-64
2021/07/13 08:50:38;;;;;;;0.45;0.10;;;19.20;77.90;;;;;;5085262;27;20058;-64
2021/07/13 08:53:05;;;;;;;0.30;0.00;;;19.10;77.90;;;;;;5085435;27;20043;-62
2021/07/13 08:55:30;;;;;;;0.88;0.10;;;19.00;77.90;;;;;;5087749;28;20036;-65
2021/07/13 08:57:56;;;;;;;2.63;0.10;;;18.80;77.70;;;;;;5087679;27;20059;-64
2021/07/13 09:00:22;;;;;;;0.10;0.10;;;18.70;78.00;;;;;;5088771;27;20066;-64
2021/07/13 09:03:30;;;;;;;1.40;0.10;;;18.60;79.30;;;;;;5086637;28;20090;-64
2021/07/13 09:05:57;;;;;;;0.47;0.10;;;18.50;79.40;;;;;;5043449;28;20094;-64
2021/07/13 09:08:28;;;;;;;0.10;0.10;;;18.40;78.70;;;;;;5040330;28;20040;-65
2021/07/13 09:11:03;;;;;;;0.22;0.00;;;18.30;79.50;;;;;;5064635;28;20040;-64
2021/07/13 09:13:31;;;;;;;1.45;0.10;;;18.20;80.00;;;;;;5086856;27;20051;-64
2021/07/13 09:15:59;;;;;;;0.00;0.00;;;18.20;80.00;;;;;;5080782;27;20516;-64
2021/07/13 09:18:35;;;;;;;0.95;0.00;;;18.20;80.00;;;;;;5087356;27;20040;-64
2021/07/13 09:21:05;;;;;;;0.00;0.00;;;18.20;80.30;;;;;;5087344;27;20040;-64
2021/07/13 09:23:30;;;;;;;1.42;0.05;;;18.20;80.20;;;;;;5087819;28;20058;-64
2021/07/13 09:25:56;;;;;;;0.43;0.10;;;18.20;80.00;;;;;;5086811;27;20507;-64
2021/07/13 09:28:24;;;;;;;0.63;0.10;;;18.20;79.80;;;;;;5087302;27;20031;-64
2021/07/13 09:30:58;;;;;;;0.30;0.00;;;18.20;79.80;;;;;;5087015;28;20028;-63
2021/07/13 09:33:32;;;;;;;0.87;0.00;;;18.20;80.00;;;;;;5085316;27;20046;-64
2021/07/13 09:36:00;;;;;;;0.43;0.10;;;18.20;79.70;;;;;;5085754;28;20672;-64
2021/07/13 09:38:27;;;;;;;0.95;0.00;;;18.20;79.80;;;;;;5087042;27;20032;-65
2021/07/13 09:41:10;;;;;;;0.00;0.00;;;18.20;79.70;;;;;;5085893;27;20036;-64
2021/07/13 09:43:52;;;;;;;0.20;0.10;;;18.20;80.00;;;;;;5101899;27;20047;-64
2021/07/13 09:46:37;;;;;;;0.13;0.00;;;18.20;80.00;;;;;;5085437;27;20115;-65
2021/07/13 09:49:22;;;;;;;0.00;0.00;;;18.20;80.20;;;;;;5078911;28;20081;-65
2021/07/13 09:51:57;;;;;;;0.73;0.00;;;18.10;79.90;;;;;;5086650;28;20040;-65
2021/07/13 09:54:44;;;;;;;0.28;0.00;;;18.10;79.60;;;;;;5085433;27;20028;-64
2021/07/13 09:57:16;;;;;;;0.00;0.00;;;18.00;79.20;;;;;;5085983;27;20085;-64
2021/07/13 09:59:44;;;;;;;0.10;0.00;;;17.90;79.10;;;;;;5086904;28;20032;-64
2021/07/13 10:02:10;;;;;;;0.10;0.00;;;17.80;79.00;;;;;;5083270;28;20522;-64
2021/07/13 10:04:38;;;;;;;0.60;0.00;;;17.80;79.30;;;;;;5085893;27;20046;-64
2021/07/13 10:07:08;;;;;;;0.40;0.10;;;17.70;79.40;;;;;;5087451;28;20032;-64
2021/07/13 10:09:38;;;;;;;0.30;0.10;;;17.60;79.80;;;;;;5087314;27;20503;-64
2021/07/13 10:12:14;;;;;;;0.20;0.08;;;17.50;79.90;;;;;;5084518;27;20028;-63
2021/07/13 10:14:41;;;;;;;0.47;0.10;;;17.50;80.30;;;;;;5087005;27;20174;-64
2021/07/13 10:17:08;;;;;;;0.13;0.05;;;17.40;80.30;;;;;;5086970;27;20032;-64
2021/07/13 10:19:39;;;;;;;0.32;0.20;;;17.40;80.50;;;;;;5087720;28;20032;-63
2021/07/13 10:22:06;;;;;;;0.95;0.13;;;17.40;80.60;;;;;;5084922;27;20040;-64
2021/07/13 10:24:33;;;;;;;0.25;0.10;;;17.40;80.80;;;;;;5086657;27;20036;-64
2021/07/13 10:26:59;;;;;;;0.10;0.10;;;17.30;81.10;;;;;;5085852;28;20410;-64
2021/07/13 10:29:34;;;;;;;1.17;0.10;;;17.40;81.70;;;;;;5082788;27;20122;-64
2021/07/13 10:32:01;;;;;;;1.42;0.20;;;17.40;83.10;;;;;;5083488;28;20035;-63
2021/07/13 10:34:49;;;;;;;0.03;0.00;;;17.50;83.10;;;;;;5083204;27;20066;-64
2021/07/13 10:37:38;;;;;;;0.10;0.00;;;17.60;84.10;;;;;;5085681;27;20464;-64
2021/07/13 10:40:10;;;;;;;0.43;0.10;;;17.70;85.00;;;;;;5087349;28;20115;-64
2021/07/13 10:42:44;;;;;;;0.60;0.10;;;17.80;84.60;;;;;;5086308;27;20469;-65
2021/07/13 10:45:15;;;;;;;0.20;0.10;;;18.00;84.60;;;;;;5084919;27;20522;-65
2021/07/13 10:48:13;;;;;;;0.13;0.10;;;18.10;83.40;;;;;;5086857;28;20119;-65
2021/07/13 10:51:05;;;;;;;0.30;0.20;;;18.20;83.30;;;;;;5099632;27;20115;-64
2021/07/13 10:53:40;;;;;;;0.10;0.10;;;18.30;81.70;;;;;;5085409;27;20156;-64
2021/07/13 10:56:08;;;;;;;0.40;0.20;;;18.40;80.80;;;;;;5086619;28;20028;-64
2021/07/13 10:58:45;;;;;;;0.22;0.10;;;18.40;80.10;;;;;;5085542;27;20032;-64
2021/07/13 11:01:23;;;;;;;0.55;0.10;;;18.50;79.70;;;;;;5085372;27;20032;-64
2021/07/13 11:03:50;;;;;;;0.08;0.00;;;18.40;79.10;;;;;;5085245;28;20059;-64
2021/07/13 11:06:37;;;;;;;0.10;0.10;;;18.40;78.90;;;;;;5083359;27;20036;-64
2021/07/13 11:09:23;;;;;;;0.22;0.20;;;18.40;79.20;;;;;;5087065;27;20343;-64
2021/07/13 11:11:50;;;;;;;1.58;0.10;;;18.40;79.10;;;;;;5089721;28;20035;-64
2021/07/13 11:14:16;;;;;;;0.10;0.10;;;18.40;79.30;;;;;;5090341;27;20086;-64
2021/07/13 11:16:44;;;;;;;0.13;0.10;;;18.40;79.40;;;;;;5090532;27;20036;-64
2021/07/13 11:19:17;;;;;;;0.65;0.10;;;18.40;79.80;;;;;;5088641;28;20055;-64
2021/07/13 11:21:47;;;;;;;1.38;0.00;;;18.40;79.60;;;;;;5088594;27;20069;-64
2021/07/13 11:24:14;;;;;;;0.03;0.03;;;18.50;79.60;;;;;;5087594;28;20031;-64
2021/07/13 11:26:45;;;;;;;0.63;0.20;;;18.40;79.20;;;;;;5088781;27;20105;-65
2021/07/13 11:29:17;;;;;;;0.10;0.05;;;18.50;78.70;;;;;;5087197;27;20587;-64
2021/07/13 11:31:47;;;;;;;0.30;0.10;;;18.50;78.50;;;;;;5088494;28;20032;-64
2021/07/13 11:34:15;;;;;;;0.10;0.00;;;18.50;78.40;;;;;;5088442;27;20024;-64
2021/07/13 11:36:43;;;;;;;0.00;0.00;;;18.50;78.30;;;;;;5089560;27;20032;-64
2021/07/13 11:39:14;;;;;;;0.00;0.00;;;18.50;78.00;;;;;;5103259;27;20027;-64
2021/07/13 11:41:41;;;;;;;0.00;0.00;;;18.40;77.90;;;;;;5088148;27;20123;-64
2021/07/13 11:44:09;;;;;;;1.50;0.10;;;18.40;77.90;;;;;;5087510;28;20032;-64
2021/07/13 11:46:37;;;;;;;0.00;0.00;;;18.40;77.90;;;;;;5088994;27;20040;-65
2021/07/13 11:49:06;;;;;;;0.20;0.17;;;18.40;78.00;;;;;;5087633;27;20546;-65
2021/07/13 11:51:52;;;;;;;0.10;0.10;;;18.40;78.10;;;;;;5105198;27;20033;-65
2021/07/13 11:54:19;;;;;;;;;;;18.30;78.40;;;;;;5089077;27;20055;-65
2021/07/13 11:56:46;;;;;;;0.22;0.10;;;18.30;78.30;;;;;;5103842;27;19983;-64
2021/07/13 11:59:17;;;;;;;0.10;0.10;;;18.30;78.00;;;;;;5088066;27;20024;-65
2021/07/13 12:01:44;;;;;;;0.10;0.10;;;18.30;78.40;;;;;;5088563;27;20040;-65
2021/07/13 12:04:12;;;;;;;1.17;0.20;;;18.30;78.50;;;;;;5087635;27;20043;-65
2021/07/13 12:06:41;;;;;;;0.20;0.15;;;18.30;78.40;;;;;;5085538;27;20036;-64
2021/07/13 12:09:14;;;;;;;0.80;0.20;;;18.20;78.40;;;;;;5085737;27;20032;-63
2021/07/13 12:11:41;;;;;;;0.22;0.20;;;18.20;78.80;;;;;;5084667;27;20107;-64
2021/07/13 12:14:09;;;;;;;1.35;0.20;;;18.20;78.40;;;;;;5094482;27;20518;-65
2021/07/13 12:16:35;;;;;;;1.30;0.25;;;18.20;78.40;;;;;;5080649;27;20382;-65
2021/07/13 12:19:09;;;;;;;0.40;0.20;;;18.20;78.40;;;;;;5088784;28;20521;-65
2021/07/13 12:21:41;;;;;;;0.20;0.20;;;18.20;78.70;;;;;;5085431;27;20481;-65
2021/07/13 12:24:12;;;;;;;1.38;0.20;;;18.20;78.70;;;;;;5081329;28;20024;-64
2021/07/13 12:26:39;;;;;;;0.40;0.28;;;18.20;78.90;;;;;;5089084;27;20139;-65
2021/07/13 12:29:19;;;;;;;0.60;0.20;;;18.20;79.00;;;;;;5089255;27;20301;-64
2021/07/13 12:31:44;;;;;;;0.85;0.20;;;18.20;79.40;;;;;;5089189;27;20159;-64
2021/07/13 12:34:23;;;;;;;0.52;0.22;;;18.20;79.50;;;;;;5085301;27;20491;-65
2021/07/13 12:37:09;;;;;;;0.85;0.30;;;18.20;80.00;;;;;;5086337;27;20047;-65
2021/07/13 12:39:37;;;;;;;0.10;0.10;;;18.20;80.00;;;;;;5088896;28;20130;-64
2021/07/13 12:42:22;;;;;;;0.20;0.20;;;18.30;79.70;;;;;;5088967;27;20020;-65
2021/07/13 12:45:12;;;;;;;0.20;0.20;;;18.30;79.60;;;;;;5079429;28;20040;-65
2021/07/13 12:47:39;;;;;;;0.60;0.20;;;18.40;79.40;;;;;;5086095;28;20119;-64
2021/07/13 12:50:11;;;;;;;0.30;0.30;;;18.40;79.10;;;;;;5094976;27;20032;-65
2021/07/13 12:52:38;;;;;;;0.40;0.30;;;18.40;78.90;;;;;;5102963;27;20059;-64
2021/07/13 12:55:15;;;;;;;0.43;0.30;;;18.40;79.10;;;;;;5086609;28;20044;-64